Time;durP1;ratioP1;P1;durP2;ratioP2;P2;SDS_P1;SDS_P2;PMS_P1;PMS_P2;Temp;Humidity;BMP_temperature;BMP_pressure;BME280_temperature;BME280_humidity;BME280_pressure;Samples;Min_cycle;Max_cycle;Signal;HPM_P1;HPM_P2
2022/01/29 00:02:24;;;;;;;10.10;4.27;;;5.20;1.00;;;;;;5126043;27;20189;-57
2022/01/29 00:04:50;;;;;;;12.13;3.00;;;5.10;1.00;;;;;;5130317;27;20649;-57
2022/01/29 00:07:15;;;;;;;7.57;3.17;;;5.30;1.00;;;;;;5123621;27;20213;-56
2022/01/29 00:09:43;;;;;;;18.17;4.27;;;5.20;1.00;;;;;;5128455;27;20181;-57
2022/01/29 00:12:10;;;;;;;10.93;3.40;;;5.00;1.00;;;;;;5126760;27;20319;-56
2022/01/29 00:14:35;;;;;;;12.97;3.40;;;4.80;1.00;;;;;;5110292;27;20446;-58
2022/01/29 00:17:01;;;;;;;7.50;3.23;;;4.90;1.00;;;;;;5129822;27;20458;-56
2022/01/29 00:19:27;;;;;;;10.63;3.10;;;5.00;1.00;;;;;;5111581;27;20684;-57
2022/01/29 00:21:53;;;;;;;21.43;4.20;;;5.10;1.00;;;;;;5119829;27;20214;-56
2022/01/29 00:24:18;;;;;;;13.73;4.27;;;5.00;1.00;;;;;;5129052;27;20430;-55
2022/01/29 00:26:44;;;;;;;9.80;3.50;;;5.00;1.00;;;;;;5126285;27;20288;-57
2022/01/29 00:29:17;;;;;;;14.60;4.20;;;5.00;1.00;;;;;;5128356;27;20690;-55
2022/01/29 00:31:43;;;;;;;11.50;3.23;;;5.20;1.00;;;;;;5126492;27;20423;-57
2022/01/29 00:34:09;;;;;;;10.60;4.23;;;;;;;;;;5107094;27;20447;-57
2022/01/29 00:36:35;;;;;;;7.00;3.00;;;;;;;;;;5129907;27;20522;-57
2022/01/29 00:39:01;;;;;;;13.00;3.87;;;5.10;1.00;;;;;;5127335;27;20435;-57
2022/01/29 00:41:26;;;;;;;23.50;3.83;;;5.10;1.00;;;;;;5127461;27;21094;-57
2022/01/29 00:43:52;;;;;;;10.13;4.23;;;5.10;1.00;;;;;;5125121;27;20213;-56
2022/01/29 00:46:18;;;;;;;12.10;3.40;;;5.10;1.00;;;;;;5127125;27;20243;-55
2022/01/29 00:48:43;;;;;;;12.27;4.13;;;5.20;1.00;;;;;;5126543;27;20194;-57
2022/01/29 00:51:09;;;;;;;9.27;2.90;;;5.20;1.00;;;;;;5126925;27;20191;-57
2022/01/29 00:53:34;;;;;;;10.00;3.13;;;5.30;1.00;;;;;;5124302;27;20249;-57
2022/01/29 00:56:05;;;;;;;9.27;3.03;;;5.30;1.00;;;;;;5127726;27;20242;-57
2022/01/29 00:58:31;;;;;;;12.53;3.20;;;5.20;1.00;;;;;;5123261;27;21020;-57
2022/01/29 01:00:57;;;;;;;13.40;3.43;;;;;;;;;;5123935;27;20478;-57
2022/01/29 01:03:22;;;;;;;10.87;3.33;;;5.30;1.00;;;;;;5125994;27;20185;-56
2022/01/29 01:05:48;;;;;;;9.73;3.07;;;5.30;1.00;;;;;;5127485;27;20462;-56
2022/01/29 01:08:13;;;;;;;8.40;2.70;;;5.20;1.00;;;;;;5128020;28;20242;-55
2022/01/29 01:10:39;;;;;;;16.77;3.63;;;5.30;1.00;;;;;;5127270;28;20230;-55
2022/01/29 01:13:05;;;;;;;13.37;4.10;;;5.10;1.00;;;;;;5109557;28;20668;-56
2022/01/29 01:15:31;;;;;;;14.97;3.63;;;5.10;1.00;;;;;;5128928;28;20192;-57
2022/01/29 01:17:56;;;;;;;8.13;2.60;;;5.20;1.00;;;;;;5128505;27;20441;-57
2022/01/29 01:20:22;;;;;;;9.80;3.20;;;5.20;1.00;;;;;;5105673;28;20189;-55
2022/01/29 01:22:47;;;;;;;10.53;3.63;;;5.30;1.00;;;;;;5116653;27;20272;-57
2022/01/29 01:25:13;;;;;;;10.13;2.47;;;5.30;1.00;;;;;;5127051;28;20219;-57
2022/01/29 01:27:38;;;;;;;8.77;3.50;;;5.30;1.00;;;;;;5129241;28;20247;-57
2022/01/29 01:30:05;;;;;;;8.33;3.13;;;5.40;1.00;;;;;;5125491;27;20334;-56
2022/01/29 01:32:30;;;;;;;12.10;3.77;;;5.40;1.00;;;;;;5125108;27;20276;-56
2022/01/29 01:35:06;;;;;;;9.13;2.93;;;5.50;1.00;;;;;;5129292;27;20508;-56
2022/01/29 01:37:39;;;;;;;14.77;4.30;;;5.50;1.00;;;;;;5130260;27;20703;-57
2022/01/29 01:40:07;;;;;;;11.47;3.30;;;5.40;1.00;;;;;;5125481;27;20442;-56
2022/01/29 01:42:32;;;;;;;10.93;3.03;;;5.50;1.00;;;;;;5132818;27;20935;-57
2022/01/29 01:44:58;;;;;;;25.30;4.30;;;5.60;1.00;;;;;;5127570;27;20486;-56
2022/01/29 01:47:23;;;;;;;10.83;3.40;;;5.60;1.00;;;;;;5126019;27;20689;-57
2022/01/29 01:49:49;;;;;;;8.77;2.97;;;5.60;1.00;;;;;;5100876;27;20651;-55
2022/01/29 01:52:15;;;;;;;11.90;3.20;;;5.50;1.00;;;;;;5123961;27;20526;-57
2022/01/29 01:54:42;;;;;;;18.60;3.47;;;5.50;1.00;;;;;;5132307;27;20546;-57
2022/01/29 01:57:08;;;;;;;11.03;2.83;;;5.60;1.00;;;;;;5130656;27;20225;-56
2022/01/29 01:59:34;;;;;;;10.83;3.50;;;5.60;1.00;;;;;;5129565;27;20466;-57
2022/01/29 02:02:00;;;;;;;15.93;3.97;;;5.60;1.00;;;;;;5132011;27;20467;-57
2022/01/29 02:04:26;;;;;;;9.43;2.60;;;5.50;1.00;;;;;;5129644;27;20531;-58
2022/01/29 02:06:53;;;;;;;11.67;2.10;;;5.40;1.00;;;;;;5131034;27;20883;-55
2022/01/29 02:09:21;;;;;;;8.50;2.50;;;5.50;1.00;;;;;;5127233;27;20202;-55
2022/01/29 02:11:52;;;;;;;7.33;2.90;;;5.40;1.00;;;;;;5130063;27;21000;-57
2022/01/29 02:14:19;;;;;;;8.47;3.00;;;5.60;1.00;;;;;;5131583;27;21084;-56
2022/01/29 02:16:45;;;;;;;14.13;2.87;;;5.60;1.00;;;;;;5128776;27;20434;-54
2022/01/29 02:19:11;;;;;;;11.83;2.37;;;5.60;1.00;;;;;;5110244;27;20410;-57
2022/01/29 02:21:37;;;;;;;12.27;3.40;;;5.60;1.00;;;;;;5131912;27;20769;-56
2022/01/29 02:24:02;;;;;;;15.93;2.73;;;5.70;1.00;;;;;;5131977;27;20182;-56
2022/01/29 02:26:28;;;;;;;6.30;2.67;;;5.70;1.00;;;;;;5121880;27;20800;-56
2022/01/29 02:28:55;;;;;;;7.20;3.17;;;5.80;1.00;;;;;;5129487;27;20255;-56
2022/01/29 02:31:20;;;;;;;11.90;2.83;;;5.70;1.00;;;;;;5130076;27;20595;-56
2022/01/29 02:33:46;;;;;;;5.33;2.40;;;5.60;1.00;;;;;;5129822;27;20526;-58
2022/01/29 02:36:12;;;;;;;11.13;2.70;;;5.60;1.00;;;;;;5126320;27;20421;-58
2022/01/29 02:38:37;;;;;;;14.20;3.27;;;5.60;1.00;;;;;;5132100;27;20287;-57
2022/01/29 02:41:06;;;;;;;9.73;2.77;;;5.60;1.00;;;;;;5108029;27;20669;-57
2022/01/29 02:43:42;;;;;;;5.33;2.67;;;5.60;1.00;;;;;;5126829;27;20265;-57
2022/01/29 02:48:44;;;;;;;10.23;4.03;;;5.60;1.00;;;;;;5127976;27;20431;-57
2022/01/29 02:51:10;;;;;;;10.73;2.67;;;5.60;1.00;;;;;;5128640;27;20958;-58
2022/01/29 02:53:35;;;;;;;12.27;3.50;;;5.60;1.00;;;;;;5130812;27;20438;-56
2022/01/29 02:56:01;;;;;;;9.23;3.37;;;5.60;1.00;;;;;;5131559;27;20187;-57
2022/01/29 02:58:27;;;;;;;6.53;2.80;;;5.60;1.00;;;;;;5129800;27;20181;-56
2022/01/29 03:00:53;;;;;;;5.47;2.37;;;5.70;1.00;;;;;;5107440;27;20327;-57
2022/01/29 03:03:18;;;;;;;8.03;2.50;;;5.80;1.00;;;;;;5131676;27;20446;-56
2022/01/29 03:05:44;;;;;;;9.67;3.13;;;5.70;1.00;;;;;;5127106;27;20485;-57
2022/01/29 03:08:09;;;;;;;5.97;2.50;;;5.90;1.00;;;;;;5128831;27;20194;-58
2022/01/29 03:10:35;;;;;;;13.00;3.07;;;6.00;1.00;;;;;;5129223;27;20181;-58
2022/01/29 03:13:01;;;;;;;5.67;2.80;;;6.10;1.00;;;;;;5129665;27;20637;-57
2022/01/29 03:15:27;;;;;;;8.27;2.73;;;6.10;1.00;;;;;;5130462;27;20254;-56
2022/01/29 03:17:52;;;;;;;11.97;3.40;;;5.90;1.00;;;;;;5127699;27;20928;-57
2022/01/29 03:20:18;;;;;;;8.80;3.20;;;5.90;1.00;;;;;;5127208;27;20174;-57
2022/01/29 03:22:43;;;;;;;6.63;3.50;;;6.00;1.00;;;;;;5130887;27;20205;-55
2022/01/29 03:25:09;;;;;;;5.80;2.80;;;5.90;1.00;;;;;;5129032;27;20535;-57
2022/01/29 03:27:35;;;;;;;8.00;3.33;;;;;;;;;;5117160;27;20655;-57
2022/01/29 03:30:02;;;;;;;10.20;3.00;;;5.90;1.00;;;;;;5130984;27;20174;-56
2022/01/29 03:32:28;;;;;;;6.90;3.10;;;5.90;1.00;;;;;;5131238;27;20545;-57
2022/01/29 03:34:53;;;;;;;9.40;3.00;;;5.90;1.00;;;;;;5131005;27;20517;-58
2022/01/29 03:37:19;;;;;;;8.30;2.87;;;6.10;1.00;;;;;;5129012;27;20189;-57
2022/01/29 03:39:46;;;;;;;6.07;2.53;;;6.10;1.00;;;;;;5129288;27;20273;-56
2022/01/29 03:42:13;;;;;;;4.63;2.80;;;6.20;1.00;;;;;;5129142;27;20206;-57
2022/01/29 03:44:39;;;;;;;6.67;3.10;;;6.10;1.00;;;;;;5125483;27;20449;-55
2022/01/29 03:47:05;;;;;;;12.90;3.63;;;6.10;1.00;;;;;;5120981;27;20773;-58
2022/01/29 03:49:31;;;;;;;8.80;3.83;;;6.10;1.00;;;;;;5129094;27;20276;-57
2022/01/29 03:51:56;;;;;;;13.50;3.40;;;6.20;1.00;;;;;;5127548;27;20185;-57
2022/01/29 03:54:22;;;;;;;9.70;3.53;;;6.20;1.00;;;;;;5128604;27;20192;-56
2022/01/29 03:56:47;;;;;;;8.43;3.70;;;6.30;1.00;;;;;;5128973;27;20245;-56
2022/01/29 03:59:13;;;;;;;11.30;2.83;;;6.30;1.00;;;;;;5129579;27;20173;-57
2022/01/29 04:01:38;;;;;;;9.47;3.53;;;6.30;1.00;;;;;;5125130;27;20185;-57
2022/01/29 04:04:04;;;;;;;6.30;2.97;;;6.40;1.00;;;;;;5131290;27;20178;-55
2022/01/29 04:06:31;;;;;;;10.03;3.70;;;6.40;1.00;;;;;;5129563;27;20197;-57
2022/01/29 04:08:56;;;;;;;5.50;3.30;;;6.50;1.00;;;;;;5128044;27;20507;-57
2022/01/29 04:11:23;;;;;;;7.10;3.70;;;6.40;1.00;;;;;;5130488;27;20417;-57
2022/01/29 04:13:49;;;;;;;8.53;3.50;;;6.50;1.00;;;;;;5113041;27;20177;-57
2022/01/29 04:16:16;;;;;;;9.30;3.50;;;6.50;1.00;;;;;;5130204;27;20947;-56
2022/01/29 04:18:42;;;;;;;6.33;3.10;;;6.50;1.00;;;;;;5130103;27;20431;-57
2022/01/29 04:21:08;;;;;;;7.57;3.87;;;6.40;1.00;;;;;;5126632;27;20962;-56
2022/01/29 04:23:34;;;;;;;8.07;3.67;;;6.40;1.00;;;;;;5128640;27;20198;-56
2022/01/29 04:26:01;;;;;;;11.60;3.30;;;6.40;1.00;;;;;;5127815;27;20876;-57
2022/01/29 04:28:31;;;;;;;10.43;3.30;;;6.40;1.00;;;;;;5130642;27;20811;-57
2022/01/29 04:31:02;;;;;;;3.63;2.80;;;6.30;1.00;;;;;;5129625;27;20439;-57
2022/01/29 04:33:30;;;;;;;5.30;3.47;;;6.40;1.00;;;;;;5130266;27;20435;-57
2022/01/29 04:35:58;;;;;;;4.10;3.67;;;6.30;1.00;;;;;;5128726;27;20446;-57
2022/01/29 04:38:25;;;;;;;4.90;3.33;;;6.30;1.00;;;;;;5109746;27;20503;-57
2022/01/29 04:40:51;;;;;;;6.20;3.20;;;6.30;1.00;;;;;;5126216;27;20999;-55
2022/01/29 04:43:17;;;;;;;7.13;3.27;;;6.30;1.00;;;;;;5122288;27;20959;-55
2022/01/29 04:45:42;;;;;;;5.97;3.80;;;6.30;1.00;;;;;;5129209;27;20474;-56
2022/01/29 04:48:08;;;;;;;7.83;4.37;;;6.30;1.00;;;;;;5129716;27;20359;-57
2022/01/29 04:50:34;;;;;;;7.90;4.17;;;6.40;1.00;;;;;;5126053;27;20295;-57
2022/01/29 04:52:59;;;;;;;6.97;4.40;;;6.40;1.00;;;;;;5124564;27;20205;-57
2022/01/29 04:55:25;;;;;;;8.63;3.70;;;6.40;1.00;;;;;;5127061;27;20201;-57
2022/01/29 04:57:50;;;;;;;9.00;3.63;;;6.40;1.00;;;;;;5126875;27;20182;-57
2022/01/29 05:00:20;;;;;;;5.93;3.50;;;6.40;1.00;;;;;;5126133;27;20294;-57
2022/01/29 05:02:47;;;;;;;4.77;3.63;;;6.50;1.00;;;;;;5125213;27;20250;-56
2022/01/29 05:05:13;;;;;;;5.03;4.00;;;;;;;;;;5125090;27;20454;-57
2022/01/29 05:07:39;;;;;;;7.97;4.03;;;6.50;1.00;;;;;;5129935;28;20518;-56
2022/01/29 05:10:05;;;;;;;8.90;3.30;;;6.50;1.00;;;;;;5120751;27;20430;-57
2022/01/29 05:12:41;;;;;;;7.73;4.73;;;6.40;1.00;;;;;;5126774;28;20675;-57
2022/01/29 05:15:26;;;;;;;6.80;3.97;;;6.40;1.00;;;;;;5108267;28;20911;-57
2022/01/29 05:28:49;;;;;;;14.63;5.80;;;6.30;1.00;;;;;;5126560;28;20951;-57
2022/01/29 05:31:14;;;;;;;10.23;5.13;;;6.30;1.00;;;;;;5125258;27;20417;-57
2022/01/29 05:33:40;;;;;;;10.97;6.20;;;;;;;;;;5128005;27;20189;-57
2022/01/29 05:36:06;;;;;;;7.60;5.67;;;6.40;1.00;;;;;;5129825;28;20173;-57
2022/01/29 05:38:32;;;;;;;9.00;5.50;;;6.40;1.00;;;;;;5128761;28;21841;-57
2022/01/29 05:40:58;;;;;;;7.20;5.50;;;6.50;1.00;;;;;;5126017;28;20188;-56
2022/01/29 05:43:23;;;;;;;7.30;5.10;;;6.50;1.00;;;;;;5121515;27;20468;-57
2022/01/29 05:45:49;;;;;;;8.83;5.60;;;6.60;1.00;;;;;;5126010;27;20217;-57
2022/01/29 05:48:15;;;;;;;7.83;5.60;;;6.60;1.00;;;;;;5124065;27;20195;-57
2022/01/29 05:50:41;;;;;;;6.17;4.97;;;6.50;1.00;;;;;;5115809;28;20417;-57
2022/01/29 05:53:07;;;;;;;8.80;6.50;;;6.60;1.00;;;;;;5120132;27;20439;-57
2022/01/29 05:55:32;;;;;;;10.53;6.87;;;6.70;1.00;;;;;;5126468;28;20450;-56
2022/01/29 05:57:58;;;;;;;10.00;6.27;;;6.60;1.00;;;;;;5124436;28;20205;-56
2022/01/29 06:00:24;;;;;;;10.40;6.63;;;6.50;1.00;;;;;;5124683;27;20263;-57
2022/01/29 06:03:07;;;;;;;8.50;6.40;;;6.50;1.00;;;;;;5124363;28;20170;-57
2022/01/29 06:05:33;;;;;;;10.13;6.80;;;;;;;;;;5127677;27;20412;-57
2022/01/29 06:07:58;;;;;;;8.40;6.57;;;6.60;1.00;;;;;;5127841;28;20598;-57
2022/01/29 06:10:25;;;;;;;9.83;7.43;;;6.60;1.00;;;;;;5126675;28;20509;-57
2022/01/29 06:13:02;;;;;;;10.70;6.90;;;6.60;1.00;;;;;;5128577;28;20261;-57
2022/01/29 06:15:28;;;;;;;9.10;7.83;;;6.60;1.00;;;;;;5127711;28;20443;-57
2022/01/29 06:17:58;;;;;;;11.23;7.10;;;6.60;1.00;;;;;;5128226;28;20454;-57
2022/01/29 06:20:25;;;;;;;15.67;7.50;;;6.70;1.00;;;;;;5117607;27;20506;-56
2022/01/29 06:22:50;;;;;;;9.77;6.80;;;6.60;1.00;;;;;;5130576;27;20478;-57
2022/01/29 06:25:16;;;;;;;9.53;7.13;;;6.60;1.00;;;;;;5130916;27;20909;-56
2022/01/29 06:27:42;;;;;;;11.30;7.57;;;7.20;1.00;;;;;;5128357;27;20662;-57
2022/01/29 06:30:08;;;;;;;10.63;6.87;;;6.70;1.00;;;;;;5129772;27;20262;-57
2022/01/29 06:32:33;;;;;;;7.87;6.77;;;6.60;1.00;;;;;;5127697;27;20232;-57
2022/01/29 06:34:59;;;;;;;10.67;7.77;;;6.70;1.00;;;;;;5124670;27;20569;-57
2022/01/29 06:37:24;;;;;;;9.63;7.07;;;6.60;1.00;;;;;;5112986;27;20189;-57
2022/01/29 06:39:50;;;;;;;11.47;7.00;;;6.70;1.00;;;;;;5128254;27;20194;-57
2022/01/29 06:42:15;;;;;;;10.70;8.00;;;6.70;1.00;;;;;;5126799;27;20216;-56
2022/01/29 06:44:41;;;;;;;11.33;7.63;;;6.70;1.00;;;;;;5124568;27;20249;-58
2022/01/29 06:47:06;;;;;;;9.90;5.97;;;6.70;1.00;;;;;;5126266;27;20209;-56
2022/01/29 06:49:32;;;;;;;13.43;7.50;;;6.90;1.00;;;;;;5129152;27;20181;-56
2022/01/29 06:51:57;;;;;;;10.77;8.33;;;6.80;1.00;;;;;;5129643;27;20713;-57
2022/01/29 06:54:23;;;;;;;9.90;7.10;;;6.80;1.00;;;;;;5129973;27;20269;-57
2022/01/29 06:56:49;;;;;;;10.70;7.57;;;6.80;1.00;;;;;;5130485;27;20213;-57
2022/01/29 06:59:14;;;;;;;10.63;7.50;;;6.90;1.00;;;;;;5130101;27;20634;-57
2022/01/29 07:01:40;;;;;;;10.07;6.73;;;6.90;1.00;;;;;;5128784;27;20190;-56
2022/01/29 07:04:06;;;;;;;10.30;7.60;;;7.00;1.00;;;;;;5131093;27;20634;-56
2022/01/29 07:06:31;;;;;;;12.57;8.43;;;7.00;1.00;;;;;;5128735;27;20322;-56
2022/01/29 07:08:58;;;;;;;9.53;7.77;;;7.00;1.00;;;;;;5129063;27;20189;-56
2022/01/29 07:11:24;;;;;;;12.23;7.30;;;7.00;1.00;;;;;;5131037;27;20231;-58
2022/01/29 07:14:00;;;;;;;10.37;6.73;;;;;;;;;;5126522;27;20435;-56
2022/01/29 07:16:26;;;;;;;11.60;8.30;;;7.00;1.00;;;;;;5126458;27;20949;-58
2022/01/29 07:18:52;;;;;;;12.87;7.70;;;7.10;1.00;;;;;;5126623;27;20447;-57
2022/01/29 07:21:17;;;;;;;10.13;7.80;;;7.00;1.00;;;;;;5116445;27;20511;-57
2022/01/29 07:23:43;;;;;;;10.70;7.63;;;;;;;;;;5127792;27;20561;-55
2022/01/29 07:26:09;;;;;;;8.80;7.07;;;7.00;1.00;;;;;;5128985;27;20208;-56
2022/01/29 07:28:34;;;;;;;8.17;6.47;;;7.00;1.00;;;;;;5131835;27;20479;-57
2022/01/29 07:31:00;;;;;;;8.97;6.60;;;7.10;1.00;;;;;;5128568;27;20201;-56
2022/01/29 07:33:27;;;;;;;9.53;7.10;;;7.00;1.00;;;;;;5126606;27;20177;-56
2022/01/29 07:35:55;;;;;;;14.57;8.97;;;6.90;1.00;;;;;;5102216;27;20461;-56
2022/01/29 07:38:20;;;;;;;9.60;7.60;;;6.90;1.00;;;;;;5126651;27;20482;-56
2022/01/29 07:40:46;;;;;;;9.47;7.50;;;6.90;1.00;;;;;;5128686;27;20552;-57
2022/01/29 07:43:11;;;;;;;8.53;6.50;;;6.80;1.00;;;;;;5128288;27;20190;-57
2022/01/29 07:45:37;;;;;;;11.00;7.60;;;6.90;1.00;;;;;;5128398;27;20543;-58
2022/01/29 07:48:03;;;;;;;11.00;7.77;;;7.00;1.00;;;;;;5130706;27;20181;-57
2022/01/29 07:50:28;;;;;;;11.30;8.47;;;7.00;1.00;;;;;;5129402;27;20256;-58
2022/01/29 07:52:54;;;;;;;10.63;7.70;;;6.90;1.00;;;;;;5130879;27;20182;-57
2022/01/29 07:55:20;;;;;;;9.90;6.97;;;6.70;1.00;;;;;;5128961;27;20182;-55
2022/01/29 07:57:46;;;;;;;10.47;7.00;;;6.80;1.00;;;;;;5110058;27;20192;-55
2022/01/29 08:00:12;;;;;;;10.67;6.87;;;6.80;1.00;;;;;;5129927;27;20435;-57
2022/01/29 08:02:38;;;;;;;8.70;6.50;;;6.80;1.00;;;;;;5111726;27;20651;-55
2022/01/29 08:05:04;;;;;;;7.97;6.57;;;6.80;1.00;;;;;;5129951;27;20478;-56
2022/01/29 08:07:29;;;;;;;11.10;7.90;;;6.90;1.00;;;;;;5130108;27;20281;-57
2022/01/29 08:09:55;;;;;;;8.67;6.97;;;6.90;1.00;;;;;;5128520;27;20174;-56
2022/01/29 08:12:20;;;;;;;10.20;6.57;;;6.90;1.00;;;;;;5129031;27;20716;-55
2022/01/29 08:14:46;;;;;;;11.20;6.50;;;6.90;1.00;;;;;;5128469;27;20187;-56
2022/01/29 08:17:11;;;;;;;9.70;6.97;;;6.90;1.00;;;;;;5128620;27;20188;-56
2022/01/29 08:19:37;;;;;;;10.60;7.30;;;6.90;1.00;;;;;;5130453;27;20185;-56
2022/01/29 08:22:02;;;;;;;10.03;6.83;;;6.90;1.00;;;;;;5128769;27;20227;-56
2022/01/29 08:24:28;;;;;;;8.50;6.60;;;6.70;1.00;;;;;;5129825;27;20385;-55
2022/01/29 08:26:54;;;;;;;9.30;6.07;;;6.60;1.00;;;;;;5129375;27;20236;-57
2022/01/29 08:29:19;;;;;;;9.83;6.77;;;6.70;1.00;;;;;;5124957;27;20191;-56
2022/01/29 08:31:45;;;;;;;9.60;5.50;;;6.60;1.00;;;;;;5129312;27;20178;-54
2022/01/29 08:34:10;;;;;;;8.57;6.00;;;6.50;1.00;;;;;;5126999;27;20208;-56
2022/01/29 08:36:36;;;;;;;12.40;6.20;;;6.70;1.00;;;;;;5130455;27;20246;-56
2022/01/29 08:39:02;;;;;;;8.57;6.20;;;6.70;1.00;;;;;;5129815;27;20234;-56
2022/01/29 08:41:27;;;;;;;9.03;5.90;;;6.70;1.00;;;;;;5130693;27;20181;-56
2022/01/29 08:43:53;;;;;;;8.03;6.10;;;6.80;1.00;;;;;;5125921;27;20856;-56
2022/01/29 08:46:19;;;;;;;7.43;5.57;;;6.70;1.00;;;;;;5111653;27;20216;-56
2022/01/29 08:48:44;;;;;;;7.97;6.20;;;6.90;1.00;;;;;;5130573;27;20177;-56
2022/01/29 08:51:10;;;;;;;9.00;5.80;;;7.00;1.00;;;;;;5129707;27;20182;-56
2022/01/29 08:53:35;;;;;;;9.20;6.00;;;6.90;1.00;;;;;;5129608;27;20216;-55
2022/01/29 08:56:01;;;;;;;7.97;5.73;;;6.90;1.00;;;;;;5130952;27;20188;-56
2022/01/29 08:58:27;;;;;;;6.93;5.63;;;7.00;1.00;;;;;;5130675;27;20308;-57
2022/01/29 09:00:53;;;;;;;7.20;5.37;;;6.90;1.00;;;;;;5125735;27;20875;-57
2022/01/29 09:03:19;;;;;;;7.67;5.47;;;7.10;1.00;;;;;;5125662;27;20190;-56
2022/01/29 09:05:46;;;;;;;7.63;5.50;;;7.00;1.00;;;;;;5127400;27;20482;-56
2022/01/29 09:08:13;;;;;;;7.20;5.50;;;6.80;1.00;;;;;;5126673;27;20192;-57
2022/01/29 09:10:39;;;;;;;6.40;5.10;;;7.00;1.00;;;;;;5127438;27;20957;-56
2022/01/29 09:13:04;;;;;;;8.73;5.53;;;6.90;1.00;;;;;;5128868;28;20414;-56
2022/01/29 09:15:30;;;;;;;6.30;4.47;;;;;;;;;;5129865;28;20184;-57
2022/01/29 09:17:56;;;;;;;6.10;5.00;;;6.90;1.00;;;;;;5130451;27;20261;-56
2022/01/29 09:20:22;;;;;;;7.00;5.70;;;6.90;1.00;;;;;;5110612;28;20443;-57
2022/01/29 09:22:47;;;;;;;7.30;5.67;;;6.80;1.00;;;;;;5129941;28;20205;-56
2022/01/29 09:25:14;;;;;;;6.13;4.87;;;;;;;;;;5125459;27;20228;-57
2022/01/29 09:27:40;;;;;;;8.87;5.60;;;6.90;1.00;;;;;;5124869;27;20662;-58
2022/01/29 09:30:06;;;;;;;6.63;4.50;;;7.10;1.00;;;;;;5124758;27;20492;-57
2022/01/29 09:32:33;;;;;;;7.60;5.50;;;7.00;1.00;;;;;;5125924;28;20526;-56
2022/01/29 09:34:58;;;;;;;7.30;4.50;;;7.00;1.00;;;;;;5129839;27;20442;-57
2022/01/29 09:37:24;;;;;;;8.37;5.77;;;6.90;1.00;;;;;;5126436;28;20939;-56
2022/01/29 09:39:49;;;;;;;5.43;4.83;;;6.90;1.00;;;;;;5126960;27;20188;-55
2022/01/29 09:42:16;;;;;;;5.97;4.37;;;6.90;1.00;;;;;;5107950;28;20185;-56
2022/01/29 09:44:42;;;;;;;9.63;5.03;;;7.00;1.00;;;;;;5127415;28;20217;-56
2022/01/29 09:47:09;;;;;;;7.63;4.93;;;7.10;1.00;;;;;;5129594;27;20449;-56
2022/01/29 09:49:35;;;;;;;6.90;5.30;;;7.00;1.00;;;;;;5110199;28;20449;-57
2022/01/29 09:52:02;;;;;;;5.73;4.60;;;7.10;1.00;;;;;;5129375;28;20414;-56
2022/01/29 09:54:27;;;;;;;6.77;4.73;;;7.20;1.00;;;;;;5129833;28;20288;-56
2022/01/29 09:56:53;;;;;;;7.43;5.27;;;7.20;1.00;;;;;;5132336;27;20603;-56
2022/01/29 09:59:19;;;;;;;4.70;4.20;;;7.20;1.00;;;;;;5129874;27;20181;-56
2022/01/29 10:01:44;;;;;;;7.23;4.13;;;7.30;1.00;;;;;;5133827;27;20177;-56
2022/01/29 10:04:10;;;;;;;5.83;4.70;;;;;;;;;;5132835;27;20206;-55
2022/01/29 10:06:38;;;;;;;6.80;4.77;;;7.10;1.00;;;;;;5132519;27;20209;-57
2022/01/29 10:09:09;;;;;;;5.90;4.90;;;7.10;1.00;;;;;;5112879;27;20856;-58
2022/01/29 10:11:36;;;;;;;5.97;4.83;;;;;;;;;;5131550;27;20949;-57
2022/01/29 10:14:04;;;;;;;6.43;4.50;;;7.00;1.00;;;;;;5131030;27;20442;-56
2022/01/29 10:16:39;;;;;;;6.97;3.97;;;7.10;1.00;;;;;;5131470;27;20518;-56
2022/01/29 10:19:10;;;;;;;5.47;4.10;;;7.00;1.00;;;;;;5133074;27;20445;-56
2022/01/29 10:21:47;;;;;;;5.13;4.50;;;7.10;1.00;;;;;;5131843;27;20441;-56
2022/01/29 10:24:13;;;;;;;5.67;4.47;;;;;;;;;;5114395;27;20491;-57
2022/01/29 10:26:42;;;;;;;4.70;3.70;;;7.10;1.00;;;;;;5134718;27;20454;-56
2022/01/29 10:29:35;;;;;;;4.70;4.20;;;7.10;1.00;;;;;;5133138;27;20809;-56
2022/01/29 10:32:02;;;;;;;5.50;4.73;;;7.00;1.00;;;;;;5127458;27;20467;-56
2022/01/29 10:34:29;;;;;;;6.80;4.97;;;7.00;1.00;;;;;;5132886;27;20426;-55
2022/01/29 10:37:18;;;;;;;7.77;5.30;;;7.00;1.00;;;;;;5132855;27;20454;-55
2022/01/29 10:39:48;;;;;;;7.50;5.10;;;7.00;1.00;;;;;;5132585;27;20783;-56
2022/01/29 10:42:19;;;;;;;5.43;4.53;;;7.00;1.00;;;;;;5130014;27;20431;-56
2022/01/29 10:44:46;;;;;;;7.33;4.63;;;7.00;1.00;;;;;;5131753;27;20466;-56
2022/01/29 10:47:13;;;;;;;8.40;4.60;;;3.30;1.00;;;;;;5132171;27;20462;-56
2022/01/29 10:49:44;;;;;;;6.53;4.63;;;7.00;1.00;;;;;;5132764;27;20459;-56
2022/01/29 10:52:14;;;;;;;6.00;4.80;;;7.20;1.00;;;;;;5132607;27;20442;-56
2022/01/29 10:54:46;;;;;;;6.20;4.30;;;7.20;1.00;;;;;;5132140;27;20545;-57
2022/01/29 10:57:15;;;;;;;6.83;4.30;;;7.20;1.00;;;;;;5131281;27;20821;-56
2022/01/29 10:59:52;;;;;;;6.13;4.53;;;7.20;1.00;;;;;;5122966;27;20913;-56
2022/01/29 11:02:20;;;;;;;5.27;4.30;;;7.20;1.00;;;;;;5108089;27;20435;-55
2022/01/29 11:04:48;;;;;;;6.33;4.77;;;7.20;1.00;;;;;;5119519;27;20448;-56
2022/01/29 11:07:19;;;;;;;7.33;5.47;;;7.30;1.00;;;;;;5124134;27;20494;-55
2022/01/29 11:09:52;;;;;;;9.63;5.30;;;7.30;1.00;;;;;;5131119;27;20423;-56
2022/01/29 11:12:26;;;;;;;6.70;4.60;;;7.30;1.00;;;;;;5130672;27;20430;-56
2022/01/29 11:15:00;;;;;;;6.97;4.87;;;7.40;1.00;;;;;;5131641;27;20427;-56
2022/01/29 11:17:28;;;;;;;6.03;4.27;;;7.30;1.00;;;;;;5132167;27;20434;-56
2022/01/29 11:19:53;;;;;;;6.20;4.77;;;7.30;1.00;;;;;;5132773;27;20449;-56
2022/01/29 11:22:29;;;;;;;8.13;4.50;;;7.30;1.00;;;;;;5131743;27;20447;-56
2022/01/29 11:25:03;;;;;;;5.80;4.70;;;7.50;1.00;;;;;;5131190;27;20674;-57
2022/01/29 11:27:31;;;;;;;5.40;4.30;;;7.50;1.00;;;;;;5130911;27;20437;-56
2022/01/29 11:30:00;;;;;;;7.90;5.20;;;7.60;1.00;;;;;;5130322;27;20437;-56
2022/01/29 11:32:28;;;;;;;6.23;5.00;;;7.70;1.00;;;;;;5128919;27;20717;-57
2022/01/29 11:38:31;;;;;;;4.40;3.50;;;7.70;1.00;;;;;;4981966;28;20457;-56
2022/01/29 11:41:04;;;;;;;5.93;4.30;;;7.60;1.00;;;;;;5130651;27;20483;-58
2022/01/29 11:43:33;;;;;;;7.07;4.73;;;7.70;1.00;;;;;;5129260;27;20473;-56
2022/01/29 11:46:11;;;;;;;4.90;4.10;;;7.80;1.00;;;;;;5131906;27;20760;-56
2022/01/29 11:48:51;;;;;;;5.63;4.30;;;7.70;1.00;;;;;;5131954;27;20435;-56
2022/01/29 11:51:39;;;;;;;6.40;4.30;;;7.80;1.00;;;;;;5131761;27;20507;-56
2022/01/29 11:54:04;;;;;;;6.37;4.47;;;7.90;1.00;;;;;;5131754;27;20432;-56
2022/01/29 11:56:36;;;;;;;5.33;4.33;;;7.90;1.00;;;;;;5131784;27;20886;-56
2022/01/29 11:59:20;;;;;;;5.23;3.73;;;7.90;1.00;;;;;;5132162;27;20567;-56
2022/01/29 12:02:01;;;;;;;5.03;3.60;;;7.90;1.00;;;;;;5131972;27;20471;-56
2022/01/29 12:04:54;;;;;;;5.90;3.90;;;7.90;1.00;;;;;;5132387;27;20740;-56
2022/01/29 12:07:38;;;;;;;4.80;3.83;;;7.90;1.00;;;;;;5131122;27;20963;-56
2022/01/29 12:10:07;;;;;;;6.83;3.93;;;7.80;1.00;;;;;;5112804;27;21014;-56
2022/01/29 12:12:38;;;;;;;4.13;3.73;;;7.80;1.00;;;;;;5110713;27;20443;-56
2022/01/29 12:15:09;;;;;;;4.03;3.63;;;7.90;1.00;;;;;;5131192;27;20431;-56
2022/01/29 12:17:40;;;;;;;4.30;3.27;;;7.90;1.00;;;;;;5128073;27;20537;-56
2022/01/29 12:20:08;;;;;;;4.50;3.13;;;8.20;1.00;;;;;;5127880;27;20439;-58
2022/01/29 12:22:35;;;;;;;3.60;2.90;;;8.20;1.00;;;;;;5129930;27;20434;-57
2022/01/29 12:25:03;;;;;;;4.10;2.80;;;8.20;1.00;;;;;;5130741;27;20549;-56
2022/01/29 12:27:45;;;;;;;4.27;3.20;;;8.20;1.00;;;;;;5130126;27;20842;-57
2022/01/29 12:30:13;;;;;;;3.57;3.13;;;8.20;1.00;;;;;;5112461;27;20466;-57
2022/01/29 12:32:39;;;;;;;4.20;3.00;;;8.30;1.00;;;;;;5129692;27;20546;-57
2022/01/29 12:35:05;;;;;;;4.13;3.20;;;8.30;1.00;;;;;;5112607;27;20439;-56
2022/01/29 12:37:31;;;;;;;3.90;3.07;;;8.40;1.00;;;;;;5129437;27;20787;-56
2022/01/29 12:40:21;;;;;;;4.43;3.27;;;8.30;1.00;;;;;;5130542;27;20454;-57
2022/01/29 12:42:56;;;;;;;2.40;2.20;;;8.30;1.00;;;;;;5129410;27;20438;-57
2022/01/29 12:45:24;;;;;;;3.23;2.73;;;8.30;1.00;;;;;;5130835;27;20510;-57
2022/01/29 12:47:50;;;;;;;3.63;2.83;;;;;;;;;;5107111;27;20471;-56
2022/01/29 12:50:22;;;;;;;2.30;1.87;;;8.10;1.00;;;;;;5131073;27;20443;-56
2022/01/29 12:53:03;;;;;;;2.40;2.17;;;8.10;1.00;;;;;;5128585;27;20443;-56
2022/01/29 12:55:28;;;;;;;3.00;2.70;;;8.20;1.00;;;;;;5131114;27;20819;-57
2022/01/29 12:57:54;;;;;;;2.83;2.63;;;8.20;1.00;;;;;;5130099;27;20447;-56
2022/01/29 13:00:21;;;;;;;2.87;2.57;;;8.20;1.00;;;;;;5131011;27;20668;-56
2022/01/29 13:02:48;;;;;;;2.60;2.30;;;8.20;1.00;;;;;;5130167;27;20224;-56
2022/01/29 13:05:14;;;;;;;3.30;2.30;;;8.10;1.00;;;;;;5130847;27;20473;-57
2022/01/29 13:07:40;;;;;;;2.30;2.10;;;8.10;1.00;;;;;;5127400;27;21151;-57
2022/01/29 13:10:08;;;;;;;2.20;2.00;;;8.20;1.00;;;;;;5129232;28;20208;-57
2022/01/29 13:12:46;;;;;;;4.00;2.07;;;8.20;1.00;;;;;;5130318;27;20409;-57
2022/01/29 13:15:13;;;;;;;4.40;2.67;;;8.20;1.00;;;;;;5128454;27;20477;-57
2022/01/29 13:17:42;;;;;;;2.77;2.40;;;8.20;1.00;;;;;;5128749;28;21643;-57
2022/01/29 13:20:12;;;;;;;2.47;2.20;;;8.20;1.00;;;;;;5129355;28;20474;-57
2022/01/29 13:22:42;;;;;;;4.50;1.87;;;8.30;1.00;;;;;;5130216;28;20418;-57
2022/01/29 13:25:08;;;;;;;2.70;2.00;;;;;;;;;;5129736;27;20469;-57
2022/01/29 13:27:37;;;;;;;2.60;2.13;;;8.50;1.00;;;;;;5126980;27;20462;-57